createdAt,value
2019-05-23T00:00:32.140Z,84.00
2019-05-23T00:01:36.371Z,84.04
2019-05-23T00:02:40.626Z,84.09
2019-05-23T00:03:44.940Z,84.10
2019-05-23T00:04:49.252Z,84.10
2019-05-23T00:05:53.517Z,84.03
2019-05-23T00:06:57.783Z,83.88
2019-05-23T00:08:02.034Z,83.78
2019-05-23T00:09:06.357Z,83.83
2019-05-23T00:10:10.623Z,83.77
2019-05-23T00:11:14.937Z,83.82
2019-05-23T00:12:19.091Z,83.80
2019-05-23T00:13:23.441Z,83.84
2019-05-23T00:14:27.669Z,83.77
2019-05-23T00:15:31.940Z,83.64
2019-05-23T00:16:36.213Z,83.67
2019-05-23T00:17:40.467Z,83.76
2019-05-23T00:18:44.809Z,83.54
2019-05-23T00:19:49.041Z,83.71
2019-05-23T00:20:53.373Z,83.70
2019-05-23T00:21:57.600Z,83.70
2019-05-23T00:23:01.972Z,83.80
2019-05-23T00:24:06.272Z,83.78
2019-05-23T00:25:10.569Z,83.86
2019-05-23T00:26:14.792Z,83.78
2019-05-23T00:27:19.078Z,83.72
2019-05-23T00:28:23.391Z,83.58
2019-05-23T00:29:27.581Z,83.42
2019-05-23T00:30:31.850Z,83.15
2019-05-23T00:31:36.064Z,83.25
2019-05-23T00:32:40.274Z,83.28
2019-05-23T00:33:44.593Z,83.30
2019-05-23T00:34:48.804Z,83.42
2019-05-23T00:35:53.134Z,83.56
2019-05-23T00:36:57.335Z,83.70
2019-05-23T00:38:01.646Z,83.69
2019-05-23T00:39:05.826Z,83.71
2019-05-23T00:40:10.056Z,83.85
2019-05-23T00:41:14.312Z,83.86
2019-05-23T00:42:18.524Z,83.64
2019-05-23T00:43:22.883Z,83.23
2019-05-23T00:44:27.040Z,83.46
2019-05-23T00:45:31.393Z,83.56
2019-05-23T00:46:35.589Z,83.52
2019-05-23T00:47:39.963Z,83.74
2019-05-23T00:48:44.233Z,84.05
2019-05-23T00:49:48.440Z,84.31
2019-05-23T00:50:52.763Z,84.36
2019-05-23T00:51:56.956Z,84.43
2019-05-23T00:53:01.268Z,84.64
2019-05-23T00:54:05.489Z,84.72
2019-05-23T00:55:09.666Z,84.92
2019-05-23T00:56:13.923Z,85.03
2019-05-23T00:57:18.110Z,85.06
2019-05-23T00:58:22.435Z,85.34
2019-05-23T00:59:27.895Z,85.47
2019-05-23T01:00:30.935Z,85.53
2019-05-23T01:01:35.195Z,85.67
2019-05-23T01:02:39.380Z,85.62
2019-05-23T01:03:43.637Z,85.74
2019-05-23T01:04:47.936Z,85.65
2019-05-23T01:05:52.156Z,85.59
2019-05-23T01:06:56.500Z,85.42
2019-05-23T01:08:00.731Z,85.61
2019-05-23T01:09:05.039Z,85.36
2019-05-23T01:10:09.357Z,85.46
2019-05-23T01:11:13.579Z,85.36
2019-05-23T01:12:17.867Z,85.44
2019-05-23T01:13:22.143Z,85.47
2019-05-23T01:14:26.385Z,85.39
2019-05-23T01:15:30.550Z,85.42
2019-05-23T01:16:34.866Z,85.39
2019-05-23T01:17:39.176Z,85.48
2019-05-23T01:18:43.368Z,85.50
2019-05-23T01:19:47.603Z,85.51
2019-05-23T01:20:51.861Z,85.52
2019-05-23T01:21:56.163Z,85.38
2019-05-23T01:23:00.472Z,85.37
2019-05-23T01:24:04.671Z,85.40
2019-05-23T01:25:08.956Z,85.39
2019-05-23T01:26:13.237Z,85.36
2019-05-23T01:27:17.385Z,85.37
2019-05-23T01:28:21.711Z,85.31
2019-05-23T01:29:25.993Z,85.22
2019-05-23T01:30:30.196Z,85.33
2019-05-23T01:31:34.441Z,85.31
2019-05-23T01:32:38.651Z,85.31
2019-05-23T01:33:42.993Z,85.31
2019-05-23T01:34:47.259Z,85.18
2019-05-23T01:35:51.552Z,85.06
2019-05-23T01:36:55.812Z,84.91
2019-05-23T01:38:04.068Z,84.93
2019-05-23T01:39:04.370Z,84.93
2019-05-23T01:40:08.616Z,84.77
2019-05-23T01:41:12.791Z,84.76
2019-05-23T01:42:17.118Z,84.83
2019-05-23T01:43:21.284Z,84.64
2019-05-23T01:44:25.612Z,84.63
2019-05-23T01:45:29.892Z,84.52
2019-05-23T01:46:34.170Z,84.61
2019-05-23T01:47:38.420Z,84.57
2019-05-23T01:48:42.649Z,84.58
2019-05-23T01:49:46.934Z,84.60
2019-05-23T01:50:51.147Z,84.76
2019-05-23T01:51:55.506Z,84.91
2019-05-23T01:52:59.704Z,84.75
2019-05-23T01:54:03.987Z,84.78
2019-05-23T01:55:08.296Z,84.84
2019-05-23T01:56:12.500Z,84.86
2019-05-23T01:57:16.813Z,84.92
2019-05-23T01:58:21.004Z,84.65
2019-05-23T01:59:25.287Z,84.42
2019-05-23T02:00:29.494Z,84.42
2019-05-23T02:01:33.816Z,84.40
2019-05-23T02:02:38.047Z,84.50
2019-05-23T02:03:42.241Z,84.46
2019-05-23T02:04:46.554Z,84.51
2019-05-23T02:05:50.743Z,84.72
2019-05-23T02:06:54.994Z,84.67
2019-05-23T02:07:59.290Z,84.65
2019-05-23T02:09:03.466Z,84.73
2019-05-23T02:10:07.673Z,84.82
2019-05-23T02:11:11.934Z,84.62
2019-05-23T02:12:16.270Z,84.65
2019-05-23T02:13:20.457Z,84.65
2019-05-23T02:14:24.798Z,84.74
2019-05-23T02:15:29.086Z,84.78
2019-05-23T02:16:33.386Z,84.77
2019-05-23T02:17:37.557Z,84.81
2019-05-23T02:18:41.819Z,84.88
2019-05-23T02:19:46.072Z,84.69
2019-05-23T02:20:50.279Z,84.42
2019-05-23T02:21:54.524Z,84.25
2019-05-23T02:22:58.785Z,84.48
2019-05-23T02:24:03.021Z,84.50
2019-05-23T02:25:07.291Z,84.61
2019-05-23T02:26:11.528Z,84.69
2019-05-23T02:27:15.836Z,84.56
2019-05-23T02:28:20.103Z,84.50
2019-05-23T02:29:24.294Z,84.64
2019-05-23T02:30:34.884Z,84.73
2019-05-23T02:31:32.898Z,84.76
2019-05-23T02:32:37.142Z,84.59
2019-05-23T02:33:41.432Z,84.60
2019-05-23T02:34:45.611Z,84.56
2019-05-23T02:35:49.934Z,84.47
2019-05-23T02:36:54.179Z,84.41
2019-05-23T02:37:58.479Z,84.48
2019-05-23T02:39:02.769Z,84.41
2019-05-23T02:40:06.928Z,84.30
2019-05-23T02:41:11.168Z,84.39
2019-05-23T02:42:15.404Z,84.25
2019-05-23T02:43:19.654Z,84.30
2019-05-23T02:44:23.926Z,84.12
2019-05-23T02:45:28.237Z,84.12
2019-05-23T02:46:32.544Z,83.99
2019-05-23T02:47:36.831Z,84.14
2019-05-23T02:48:40.936Z,84.41
2019-05-23T02:49:45.132Z,84.56
2019-05-23T02:50:49.459Z,84.50
2019-05-23T02:51:53.744Z,84.26
2019-05-23T02:52:57.932Z,84.21
2019-05-23T02:54:02.250Z,84.17
2019-05-23T02:55:06.399Z,84.25
2019-05-23T02:56:10.723Z,84.21
2019-05-23T02:57:15.003Z,84.16
2019-05-23T02:58:19.164Z,84.11
2019-05-23T02:59:23.292Z,84.17
2019-05-23T03:00:27.577Z,84.20
2019-05-23T03:01:31.848Z,84.24
2019-05-23T03:02:36.121Z,84.18
2019-05-23T03:03:40.271Z,84.25
2019-05-23T03:04:44.529Z,84.33
2019-05-23T03:05:48.818Z,84.46
2019-05-23T03:06:53.044Z,84.53
2019-05-23T03:07:57.375Z,84.40
2019-05-23T03:09:01.507Z,84.45
2019-05-23T03:10:05.730Z,84.58
2019-05-23T03:11:09.950Z,84.47
2019-05-23T03:12:14.173Z,84.52
2019-05-23T03:13:18.492Z,84.69
2019-05-23T03:14:22.771Z,84.75
2019-05-23T03:15:26.950Z,84.63
2019-05-23T03:16:31.284Z,84.55
2019-05-23T03:17:35.489Z,84.61
2019-05-23T03:18:39.827Z,84.63
2019-05-23T03:19:44.055Z,84.59
2019-05-23T03:20:48.253Z,84.72
2019-05-23T03:21:52.557Z,85.03
2019-05-23T03:22:56.762Z,85.04
2019-05-23T03:24:01.068Z,85.02
2019-05-23T03:25:05.412Z,85.14
2019-05-23T03:26:12.439Z,85.31
2019-05-23T03:27:15.698Z,85.38
2019-05-23T03:28:20.002Z,85.35
2019-05-23T03:29:24.252Z,85.29
2019-05-23T03:30:28.450Z,85.28
2019-05-23T03:31:33.323Z,85.25
2019-05-23T03:32:39.192Z,85.21
2019-05-23T03:33:41.274Z,85.19
2019-05-23T03:34:45.519Z,85.06
2019-05-23T03:35:49.759Z,85.02
2019-05-23T03:36:54.074Z,84.99
2019-05-23T03:37:58.289Z,84.92
2019-05-23T03:39:02.629Z,84.85
2019-05-23T03:40:06.886Z,84.84
2019-05-23T03:41:11.183Z,84.73
2019-05-23T03:42:15.450Z,84.74
2019-05-23T03:43:19.706Z,84.69
2019-05-23T03:44:24.023Z,84.65
2019-05-23T03:45:28.301Z,84.57
2019-05-23T03:46:32.561Z,84.58
2019-05-23T03:47:36.789Z,84.47
2019-05-23T03:48:41.148Z,84.42
2019-05-23T03:49:45.353Z,84.46
2019-05-23T03:50:49.596Z,84.53
2019-05-23T03:51:53.930Z,84.52
2019-05-23T03:52:58.211Z,84.28
2019-05-23T03:54:02.432Z,84.34
2019-05-23T03:55:06.715Z,84.43
2019-05-23T03:56:10.908Z,84.32
2019-05-23T03:57:15.211Z,84.38
2019-05-23T03:58:19.512Z,84.38
2019-05-23T03:59:23.805Z,84.43
2019-05-23T04:00:28.059Z,84.45
2019-05-23T04:01:47.183Z,84.50
2019-05-23T04:02:36.567Z,84.57
2019-05-23T04:03:40.921Z,84.38
2019-05-23T04:04:45.194Z,84.41
2019-05-23T04:05:49.472Z,84.46
2019-05-23T04:06:53.681Z,84.49
2019-05-23T04:07:57.932Z,84.46
2019-05-23T04:09:02.191Z,84.31
2019-05-23T04:10:06.516Z,84.36
2019-05-23T04:11:10.700Z,84.24
2019-05-23T04:12:15.125Z,84.18
2019-05-23T04:13:19.269Z,84.23
2019-05-23T04:14:23.625Z,84.21
2019-05-23T04:15:27.887Z,84.09
2019-05-23T04:16:32.092Z,84.12
2019-05-23T04:17:36.352Z,84.20
2019-05-23T04:18:40.694Z,84.24
2019-05-23T04:19:44.947Z,84.28
2019-05-23T04:20:49.270Z,84.30
2019-05-23T04:21:53.482Z,84.30
2019-05-23T04:22:57.761Z,84.11
2019-05-23T04:24:02.086Z,84.09
2019-05-23T04:25:06.376Z,84.19
2019-05-23T04:26:10.577Z,84.21
2019-05-23T04:27:14.907Z,84.27
2019-05-23T04:28:19.260Z,84.33
2019-05-23T04:29:23.541Z,84.29
2019-05-23T04:30:27.709Z,84.28
2019-05-23T04:31:32.043Z,84.34
2019-05-23T04:32:36.247Z,84.34
2019-05-23T04:33:40.553Z,84.42
2019-05-23T04:34:44.791Z,84.39
2019-05-23T04:35:49.112Z,84.44
2019-05-23T04:36:53.383Z,84.51
2019-05-23T04:37:57.645Z,84.70
2019-05-23T04:39:01.775Z,84.71
2019-05-23T04:40:06.170Z,84.79
2019-05-23T04:41:10.368Z,84.78
2019-05-23T04:42:14.660Z,84.86
2019-05-23T04:43:18.903Z,84.92
2019-05-23T04:44:23.253Z,85.14
2019-05-23T04:45:27.513Z,85.36
2019-05-23T04:46:31.821Z,85.60
2019-05-23T04:47:36.006Z,85.77
2019-05-23T04:48:40.372Z,85.59
2019-05-23T04:49:44.644Z,86.00
2019-05-23T04:50:48.922Z,85.80
2019-05-23T04:51:53.141Z,85.76
2019-05-23T04:52:57.391Z,85.78
2019-05-23T04:54:01.734Z,85.64
2019-05-23T04:55:06.073Z,85.90
2019-05-23T04:56:10.357Z,85.75
2019-05-23T04:57:14.642Z,85.59
2019-05-23T04:58:18.810Z,85.57
2019-05-23T04:59:23.031Z,85.69
2019-05-23T05:00:27.394Z,85.95
2019-05-23T05:01:31.567Z,85.89
2019-05-23T05:02:35.788Z,85.82
2019-05-23T05:03:40.133Z,85.91
2019-05-23T05:04:44.438Z,85.75
2019-05-23T05:05:48.676Z,85.71
2019-05-23T05:06:52.933Z,85.55
2019-05-23T05:07:57.199Z,85.53
2019-05-23T05:09:01.465Z,85.49
2019-05-23T05:10:05.711Z,85.48
2019-05-23T05:11:10.095Z,85.40
2019-05-23T05:12:14.294Z,85.38
2019-05-23T05:13:18.548Z,85.36
2019-05-23T05:14:22.904Z,85.27
2019-05-23T05:15:27.241Z,85.27
2019-05-23T05:16:31.546Z,85.22
2019-05-23T05:17:35.760Z,85.08
2019-05-23T05:18:39.988Z,85.18
2019-05-23T05:19:44.339Z,85.01
2019-05-23T05:20:48.578Z,84.87
2019-05-23T05:21:52.936Z,84.74
2019-05-23T05:22:57.198Z,84.79
2019-05-23T05:24:01.479Z,84.78
2019-05-23T05:25:05.881Z,84.74
2019-05-23T05:26:10.232Z,84.75
2019-05-23T05:27:14.423Z,84.73
2019-05-23T05:28:18.793Z,84.64
2019-05-23T05:29:23.123Z,84.58
2019-05-23T05:30:27.292Z,84.55
2019-05-23T05:31:31.674Z,84.43
2019-05-23T05:32:44.742Z,84.46
2019-05-23T05:33:40.031Z,84.29
2019-05-23T05:34:44.404Z,84.35
2019-05-23T05:35:48.587Z,84.36
2019-05-23T05:36:53.017Z,84.02
2019-05-23T05:37:57.358Z,84.20
2019-05-23T05:39:01.674Z,83.55
2019-05-23T05:40:06.023Z,83.50
2019-05-23T05:41:10.344Z,84.01
2019-05-23T05:42:14.570Z,83.33
2019-05-23T05:43:18.949Z,83.75
2019-05-23T05:44:23.281Z,83.51
2019-05-23T05:45:27.585Z,83.26
2019-05-23T05:46:32.002Z,82.36
2019-05-23T05:47:36.351Z,79.42
2019-05-23T05:48:40.610Z,80.04
2019-05-23T05:49:44.888Z,80.55
2019-05-23T05:50:49.286Z,78.94
2019-05-23T05:51:53.547Z,78.65
2019-05-23T05:52:57.940Z,78.48
2019-05-23T05:54:02.275Z,78.10
2019-05-23T05:55:06.536Z,78.85
2019-05-23T05:56:11.096Z,79.35
2019-05-23T05:57:15.103Z,79.10
2019-05-23T05:58:19.419Z,78.64
2019-05-23T05:59:23.724Z,77.71
2019-05-23T06:00:28.076Z,76.63
2019-05-23T06:01:34.251Z,75.43
2019-05-23T06:02:36.644Z,76.08
2019-05-23T06:03:41.063Z,74.25
2019-05-23T06:04:45.310Z,76.39
2019-05-23T06:05:49.613Z,76.05
2019-05-23T06:06:53.911Z,73.25
2019-05-23T06:07:58.183Z,74.31
2019-05-23T06:09:02.493Z,72.81
2019-05-23T06:10:06.790Z,74.47
2019-05-23T06:11:11.122Z,74.27
2019-05-23T06:12:15.493Z,73.88
2019-05-23T06:13:19.727Z,72.66
2019-05-23T06:14:24.135Z,74.30
2019-05-23T06:15:28.372Z,74.75
2019-05-23T06:16:32.687Z,72.97
2019-05-23T06:17:37.046Z,74.24
2019-05-23T06:18:41.347Z,72.85
2019-05-23T06:19:45.759Z,71.60
2019-05-23T06:20:50.073Z,72.89
2019-05-23T06:21:54.422Z,72.54
2019-05-23T06:22:58.701Z,71.96
2019-05-23T06:24:03.089Z,74.18
2019-05-23T06:25:07.426Z,72.82
2019-05-23T06:26:11.726Z,72.44
2019-05-23T06:27:16.009Z,72.02
2019-05-23T06:28:20.435Z,72.28
2019-05-23T06:29:25.283Z,72.20
2019-05-23T06:30:32.634Z,72.46
2019-05-23T06:31:33.337Z,73.82
2019-05-23T06:32:37.638Z,74.52
2019-05-23T06:33:41.927Z,72.80
2019-05-23T06:34:46.200Z,72.94
2019-05-23T06:35:50.614Z,72.19
2019-05-23T06:36:54.950Z,71.33
2019-05-23T06:37:59.326Z,70.90
2019-05-23T06:39:03.603Z,70.27
2019-05-23T06:40:07.965Z,71.77
2019-05-23T06:41:12.246Z,70.96
2019-05-23T06:42:16.584Z,72.03
2019-05-23T06:43:20.919Z,73.06
2019-05-23T06:44:25.276Z,73.14
2019-05-23T06:45:29.653Z,71.66
2019-05-23T06:46:33.943Z,71.16
2019-05-23T06:47:38.368Z,70.84
2019-05-23T06:48:45.833Z,70.09
2019-05-23T06:49:46.891Z,71.07
2019-05-23T06:50:51.288Z,72.17
2019-05-23T06:51:55.567Z,72.60
2019-05-23T06:52:59.983Z,72.83
2019-05-23T06:54:04.219Z,71.75
2019-05-23T06:55:08.623Z,70.76
2019-05-23T06:56:12.961Z,71.20
2019-05-23T06:57:17.227Z,70.89
2019-05-23T06:58:21.939Z,72.11
2019-05-23T06:59:26.031Z,71.59
2019-05-23T07:00:30.320Z,71.23
2019-05-23T07:01:34.611Z,71.84
2019-05-23T07:02:38.929Z,71.07
2019-05-23T07:03:43.985Z,72.40
2019-05-23T07:04:47.629Z,72.94
2019-05-23T07:05:51.961Z,70.84
2019-05-23T07:06:56.273Z,70.89
2019-05-23T07:08:00.713Z,68.94
2019-05-23T07:09:05.108Z,70.45
2019-05-23T07:10:09.387Z,70.60
2019-05-23T07:11:13.714Z,71.40
2019-05-23T07:12:18.079Z,69.69
2019-05-23T07:13:22.393Z,69.62
2019-05-23T07:14:26.684Z,68.98
2019-05-23T07:15:30.951Z,68.56
2019-05-23T07:16:35.359Z,68.63
2019-05-23T07:17:39.720Z,69.50
2019-05-23T07:18:44.646Z,69.76
2019-05-23T07:19:48.370Z,69.86
2019-05-23T07:20:52.641Z,70.49
2019-05-23T07:21:56.974Z,69.62
2019-05-23T07:23:01.363Z,69.72
2019-05-23T07:24:05.682Z,70.96
2019-05-23T07:25:10.016Z,70.68
2019-05-23T07:26:14.316Z,71.56
2019-05-23T07:27:18.657Z,69.96
2019-05-23T07:28:22.944Z,69.86
2019-05-23T07:29:27.296Z,68.89
2019-05-23T07:30:31.606Z,69.72
2019-05-23T07:31:36.029Z,69.49
2019-05-23T07:32:40.346Z,70.33
2019-05-23T07:34:00.481Z,70.11
2019-05-23T07:34:49.051Z,68.44
2019-05-23T07:35:53.361Z,69.41
2019-05-23T07:36:57.748Z,69.43
2019-05-23T07:38:02.143Z,69.70
2019-05-23T07:39:06.512Z,68.89
2019-05-23T07:40:10.856Z,70.11
2019-05-23T07:41:15.164Z,70.58
2019-05-23T07:42:19.463Z,69.52
2019-05-23T07:43:23.871Z,70.14
2019-05-23T07:44:28.131Z,70.89
2019-05-23T07:45:32.574Z,70.82
2019-05-23T07:46:36.867Z,71.25
2019-05-23T07:47:41.285Z,71.01
2019-05-23T07:48:45.638Z,69.93
2019-05-23T07:49:49.966Z,67.99
2019-05-23T07:50:54.221Z,68.34
2019-05-23T07:51:58.557Z,67.20
2019-05-23T07:53:03.103Z,67.86
2019-05-23T07:54:07.413Z,68.80
2019-05-23T07:55:11.654Z,69.62
2019-05-23T07:56:16.014Z,69.96
2019-05-23T07:57:20.435Z,68.98
2019-05-23T07:58:24.814Z,67.04
2019-05-23T07:59:29.116Z,68.37
2019-05-23T08:00:33.474Z,69.38
2019-05-23T08:01:37.845Z,69.87
2019-05-23T08:02:42.214Z,69.54
2019-05-23T08:03:46.526Z,69.88
2019-05-23T08:04:50.953Z,68.09
2019-05-23T08:05:55.247Z,68.87
2019-05-23T08:06:59.551Z,68.73
2019-05-23T08:08:04.314Z,68.61
2019-05-23T08:09:08.306Z,68.05
2019-05-23T08:10:12.692Z,68.57
2019-05-23T08:11:17.011Z,68.03
2019-05-23T08:12:21.339Z,69.04
2019-05-23T08:13:25.705Z,68.77
2019-05-23T08:14:30.108Z,68.20
2019-05-23T08:15:34.545Z,67.86
2019-05-23T08:16:38.771Z,67.29
2019-05-23T08:17:43.094Z,68.08
2019-05-23T08:18:47.402Z,67.27
2019-05-23T08:19:51.790Z,68.29
2019-05-23T08:20:56.093Z,68.99
2019-05-23T08:22:00.539Z,67.41
2019-05-23T08:23:04.782Z,67.94
2019-05-23T08:24:09.222Z,68.00
2019-05-23T08:25:13.553Z,68.35
2019-05-23T08:26:17.948Z,67.79
2019-05-23T08:27:22.256Z,68.94
2019-05-23T08:28:26.602Z,67.93
2019-05-23T08:29:30.925Z,68.64
2019-05-23T08:30:35.362Z,69.22
2019-05-23T08:31:39.679Z,67.92
2019-05-23T08:32:43.982Z,65.02
2019-05-23T08:33:48.401Z,64.80
2019-05-23T08:34:52.775Z,64.23
2019-05-23T08:35:57.202Z,66.09
2019-05-23T08:37:01.514Z,66.82
2019-05-23T08:38:05.907Z,66.17
2019-05-23T08:39:10.295Z,66.62
2019-05-23T08:40:14.670Z,67.71
2019-05-23T08:41:19.008Z,67.98
2019-05-23T08:42:23.390Z,68.07
2019-05-23T08:43:27.666Z,68.36
2019-05-23T08:44:32.026Z,68.31
2019-05-23T08:45:36.413Z,68.28
2019-05-23T08:46:40.806Z,67.11
2019-05-23T08:47:45.148Z,67.17
2019-05-23T08:48:49.513Z,67.60
2019-05-23T08:49:53.780Z,66.39
2019-05-23T08:50:58.206Z,67.48
2019-05-23T08:52:02.526Z,66.89
2019-05-23T08:53:06.854Z,66.79
2019-05-23T08:54:11.199Z,66.43
2019-05-23T08:55:15.525Z,67.04
2019-05-23T08:56:19.931Z,67.29
2019-05-23T08:57:24.300Z,67.27
2019-05-23T08:58:28.564Z,66.91
2019-05-23T08:59:32.973Z,66.14
2019-05-23T09:00:37.281Z,66.64
2019-05-23T09:01:41.662Z,66.04
2019-05-23T09:02:46.026Z,66.08
2019-05-23T09:03:50.488Z,64.93
2019-05-23T09:05:04.679Z,64.83
2019-05-23T09:05:59.108Z,66.15
2019-05-23T09:07:03.502Z,64.22
2019-05-23T09:08:07.932Z,63.95
2019-05-23T09:09:28.332Z,63.51
2019-05-23T09:10:16.547Z,64.02
2019-05-23T09:11:20.972Z,64.16
2019-05-23T09:12:25.396Z,62.83
2019-05-23T09:13:29.780Z,60.34
2019-05-23T09:14:34.186Z,61.44
2019-05-23T09:15:38.612Z,62.16
2019-05-23T09:16:42.988Z,61.34
2019-05-23T09:17:52.973Z,62.33
2019-05-23T09:18:51.727Z,61.84
2019-05-23T09:19:56.090Z,61.90
2019-05-23T09:21:00.378Z,63.31
2019-05-23T09:22:04.838Z,62.29
2019-05-23T09:23:09.226Z,61.80
2019-05-23T09:24:13.555Z,62.61
2019-05-23T09:25:17.917Z,63.84
2019-05-23T09:26:22.193Z,61.43
2019-05-23T09:27:26.541Z,62.85
2019-05-23T09:28:30.920Z,62.68
2019-05-23T09:29:35.361Z,60.01
2019-05-23T09:30:39.681Z,59.48
2019-05-23T09:31:43.979Z,60.74
2019-05-23T09:32:48.353Z,61.54
2019-05-23T09:33:52.644Z,62.28
2019-05-23T09:34:56.983Z,62.72
2019-05-23T09:36:01.375Z,61.60
2019-05-23T09:37:05.749Z,60.54
2019-05-23T09:38:10.208Z,62.03
2019-05-23T09:39:14.621Z,62.15
2019-05-23T09:40:18.957Z,61.49
2019-05-23T09:41:23.274Z,62.50
2019-05-23T09:42:27.694Z,61.29
2019-05-23T09:43:32.032Z,61.89
2019-05-23T09:44:36.375Z,61.14
2019-05-23T09:45:40.832Z,61.90
2019-05-23T09:46:45.156Z,61.76
2019-05-23T09:47:51.209Z,61.05
2019-05-23T09:48:53.840Z,61.69
2019-05-23T09:49:58.221Z,62.01
2019-05-23T09:51:02.523Z,61.14
2019-05-23T09:52:06.926Z,59.04
2019-05-23T09:53:11.365Z,61.00
2019-05-23T09:54:15.732Z,60.81
2019-05-23T09:55:20.161Z,61.18
2019-05-23T09:56:24.501Z,59.23
2019-05-23T09:57:28.872Z,58.30
2019-05-23T09:58:33.206Z,56.80
2019-05-23T09:59:37.620Z,58.10
2019-05-23T10:00:42.038Z,58.48
2019-05-23T10:01:46.457Z,59.06
2019-05-23T10:02:50.852Z,58.41
2019-05-23T10:03:55.248Z,57.97
2019-05-23T10:04:59.666Z,59.72
2019-05-23T10:06:03.979Z,56.02
2019-05-23T10:07:08.379Z,58.27
2019-05-23T10:08:12.654Z,58.58
2019-05-23T10:09:17.082Z,57.74
2019-05-23T10:10:21.461Z,59.17
2019-05-23T10:11:25.861Z,59.97
2019-05-23T10:12:30.260Z,58.80
2019-05-23T10:13:39.111Z,59.51
2019-05-23T10:14:39.034Z,56.45
2019-05-23T10:15:43.466Z,56.43
2019-05-23T10:16:47.772Z,55.94
2019-05-23T10:17:52.220Z,57.85
2019-05-23T10:18:56.550Z,59.25
2019-05-23T10:20:00.976Z,57.00
2019-05-23T10:21:05.233Z,56.70
2019-05-23T10:22:09.665Z,58.02
2019-05-23T10:23:13.999Z,58.79
2019-05-23T10:24:18.438Z,56.73
2019-05-23T10:25:22.691Z,57.68
2019-05-23T10:26:27.105Z,58.04
2019-05-23T10:27:31.443Z,59.06
2019-05-23T10:28:35.803Z,58.14
2019-05-23T10:29:40.219Z,59.30
2019-05-23T10:30:44.633Z,58.22
2019-05-23T10:31:49.044Z,57.69
2019-05-23T10:32:53.389Z,57.13
2019-05-23T10:33:57.759Z,56.59
2019-05-23T10:35:02.123Z,57.37
2019-05-23T10:36:06.573Z,54.45
2019-05-23T10:37:10.884Z,54.40
2019-05-23T10:38:15.279Z,56.44
2019-05-23T10:39:19.635Z,57.80
2019-05-23T10:40:24.016Z,55.20
2019-05-23T10:41:28.384Z,54.62
2019-05-23T10:42:32.797Z,54.92
2019-05-23T10:43:37.227Z,56.53
2019-05-23T10:44:44.867Z,57.38
2019-05-23T10:45:45.944Z,58.45
2019-05-23T10:46:50.228Z,58.41
2019-05-23T10:47:54.606Z,57.75
2019-05-23T10:48:59.043Z,58.04
2019-05-23T10:50:08.005Z,55.93
2019-05-23T10:51:07.860Z,54.97
2019-05-23T10:52:12.258Z,54.01
2019-05-23T10:53:16.662Z,55.70
2019-05-23T10:54:21.079Z,54.65
2019-05-23T10:55:25.465Z,54.98
2019-05-23T10:56:29.920Z,55.50
2019-05-23T10:57:34.214Z,56.00
2019-05-23T10:58:38.649Z,55.55
2019-05-23T10:59:43.011Z,55.54
2019-05-23T11:00:47.437Z,56.16
2019-05-23T11:01:51.837Z,54.38
2019-05-23T11:02:56.174Z,55.95
2019-05-23T11:04:00.649Z,56.99
2019-05-23T11:05:12.951Z,55.95
2019-05-23T11:06:16.644Z,55.43
2019-05-23T11:07:15.907Z,55.46
2019-05-23T11:08:20.264Z,53.63
2019-05-23T11:09:37.119Z,53.80
2019-05-23T11:10:29.157Z,54.55
2019-05-23T11:11:33.430Z,55.08
2019-05-23T11:12:37.799Z,53.73
2019-05-23T11:13:42.141Z,53.51
2019-05-23T11:14:46.610Z,54.11
2019-05-23T11:15:50.946Z,54.78
2019-05-23T11:16:55.378Z,54.71
2019-05-23T11:17:59.811Z,54.67
2019-05-23T11:19:04.208Z,54.71
2019-05-23T11:20:08.617Z,55.25
2019-05-23T11:21:12.973Z,55.18
2019-05-23T11:22:17.440Z,53.16
2019-05-23T11:23:21.714Z,52.81
2019-05-23T11:24:26.205Z,50.68
2019-05-23T11:25:30.559Z,50.74
2019-05-23T11:26:34.959Z,51.55
2019-05-23T11:27:39.392Z,52.10
2019-05-23T11:28:43.787Z,52.63
2019-05-23T11:29:48.184Z,53.86
2019-05-23T11:30:52.594Z,54.46
2019-05-23T11:31:56.967Z,55.29
2019-05-23T11:33:01.335Z,53.58
2019-05-23T11:34:05.835Z,52.17
2019-05-23T11:35:10.186Z,52.40
2019-05-23T11:36:14.679Z,51.13
2019-05-23T11:37:19.009Z,52.82
2019-05-23T11:38:23.416Z,52.12
2019-05-23T11:39:27.813Z,51.73
2019-05-23T11:40:33.777Z,49.85
2019-05-23T11:41:36.613Z,50.23
2019-05-23T11:42:41.101Z,50.26
2019-05-23T11:43:45.521Z,51.03
2019-05-23T11:44:49.885Z,49.02
2019-05-23T11:45:54.269Z,51.24
2019-05-23T11:46:58.770Z,52.20
2019-05-23T11:48:03.097Z,52.91
2019-05-23T11:49:07.546Z,50.38
2019-05-23T11:50:12.040Z,48.91
2019-05-23T11:51:16.439Z,48.04
2019-05-23T11:52:20.907Z,48.45
2019-05-23T11:53:25.270Z,48.15
2019-05-23T11:54:29.705Z,49.52
2019-05-23T11:55:34.179Z,45.82
2019-05-23T11:56:38.596Z,46.89
2019-05-23T11:57:43.025Z,46.65
2019-05-23T11:58:47.379Z,48.13
2019-05-23T11:59:51.886Z,47.70
2019-05-23T12:00:56.354Z,46.92
2019-05-23T12:02:00.714Z,47.20
2019-05-23T12:03:05.140Z,45.91
2019-05-23T12:04:09.644Z,46.97
2019-05-23T12:05:14.019Z,46.20
2019-05-23T12:06:18.401Z,46.90
2019-05-23T12:07:22.904Z,45.04
2019-05-23T12:08:27.281Z,47.18
2019-05-23T12:09:31.669Z,47.42
2019-05-23T12:10:36.160Z,47.99
2019-05-23T12:11:42.681Z,47.13
2019-05-23T12:12:44.922Z,46.12
2019-05-23T12:13:49.264Z,46.80
2019-05-23T12:14:53.723Z,46.76
2019-05-23T12:15:58.197Z,45.71
2019-05-23T12:17:02.621Z,46.63
2019-05-23T12:18:06.948Z,46.37
2019-05-23T12:19:11.472Z,46.57
2019-05-23T12:20:15.821Z,48.01
2019-05-23T12:21:20.314Z,48.22
2019-05-23T12:22:24.657Z,48.47
2019-05-23T12:23:29.067Z,46.85
2019-05-23T12:24:35.490Z,47.51
2019-05-23T12:25:37.893Z,46.91
2019-05-23T12:26:42.419Z,47.66
2019-05-23T12:27:46.846Z,47.45
2019-05-23T12:28:51.263Z,48.61
2019-05-23T12:29:55.641Z,48.76
2019-05-23T12:31:00.073Z,47.45
2019-05-23T12:32:04.543Z,48.89
2019-05-23T12:33:08.899Z,48.29
2019-05-23T12:34:13.379Z,46.79
2019-05-23T12:35:17.821Z,46.84
2019-05-23T12:36:22.203Z,46.47
2019-05-23T12:37:26.672Z,48.22
2019-05-23T12:38:31.051Z,45.75
2019-05-23T12:39:38.565Z,47.22
2019-05-23T12:40:42.181Z,47.79
2019-05-23T12:41:46.484Z,48.11
2019-05-23T12:42:50.952Z,48.24
2019-05-23T12:43:55.360Z,45.99
2019-05-23T12:44:59.810Z,47.78
2019-05-23T12:46:04.310Z,46.67
2019-05-23T12:47:08.632Z,48.64
2019-05-23T12:48:13.166Z,45.12
2019-05-23T12:49:17.628Z,46.03
2019-05-23T12:50:22.085Z,44.77
2019-05-23T12:51:26.453Z,46.17
2019-05-23T12:52:30.843Z,46.25
2019-05-23T12:53:35.367Z,46.56
2019-05-23T12:54:39.782Z,45.20
2019-05-23T12:55:44.222Z,45.01
2019-05-23T12:56:49.337Z,44.63
2019-05-23T12:57:53.122Z,46.97
2019-05-23T12:58:57.567Z,47.49
2019-05-23T13:00:01.936Z,46.18
2019-05-23T13:01:06.427Z,42.77
2019-05-23T13:02:10.877Z,43.57
2019-05-23T13:03:15.263Z,44.99
2019-05-23T13:04:19.660Z,45.67
2019-05-23T13:05:24.137Z,47.09
2019-05-23T13:06:28.579Z,47.89
2019-05-23T13:07:36.298Z,48.06
2019-05-23T13:08:37.436Z,48.00
2019-05-23T13:09:41.898Z,46.36
2019-05-23T13:10:46.290Z,45.49
2019-05-23T13:11:50.806Z,46.14
2019-05-23T13:12:55.168Z,46.38
2019-05-23T13:13:59.603Z,46.74
2019-05-23T13:15:04.031Z,47.08
2019-05-23T13:16:08.587Z,44.66
2019-05-23T13:17:12.855Z,47.07
2019-05-23T13:18:17.252Z,47.15
2019-05-23T13:19:21.746Z,46.46
2019-05-23T13:20:26.236Z,47.39
2019-05-23T13:21:30.621Z,48.17
2019-05-23T13:22:35.033Z,45.26
2019-05-23T13:23:39.423Z,46.48
2019-05-23T13:24:52.769Z,47.23
2019-05-23T13:25:48.349Z,47.17
2019-05-23T13:26:52.822Z,47.77
2019-05-23T13:27:58.798Z,48.89
2019-05-23T13:29:01.516Z,47.85
2019-05-23T13:30:05.988Z,48.15
2019-05-23T13:31:10.382Z,48.78
2019-05-23T13:32:14.851Z,49.00
2019-05-23T13:33:19.292Z,48.86
2019-05-23T13:34:23.639Z,49.14
2019-05-23T13:35:28.133Z,48.84
2019-05-23T13:36:32.538Z,48.20
2019-05-23T13:37:52.198Z,46.84
2019-05-23T13:38:41.381Z,48.47
2019-05-23T13:39:45.868Z,48.04
2019-05-23T13:40:50.247Z,46.93
2019-05-23T13:41:54.696Z,47.43
2019-05-23T13:42:59.155Z,47.30
2019-05-23T13:44:03.560Z,47.73
2019-05-23T13:45:07.920Z,47.85
2019-05-23T13:46:12.383Z,46.30
2019-05-23T13:47:16.831Z,45.75
2019-05-23T13:48:21.279Z,45.87